sensor_id;sensor_type;location;lat;lon;timestamp;P1;durP1;ratioP1;P2;durP2;ratioP2
19673;SDS011;9986;50.610;7.230;2023-02-01T00:02:28;7.50;;;5.20;;
19673;SDS011;9986;50.610;7.230;2023-02-01T00:05:13;9.43;;;5.47;;
19673;SDS011;9986;50.610;7.230;2023-02-01T00:07:54;7.67;;;3.70;;
19673;SDS011;9986;50.610;7.230;2023-02-01T00:10:43;5.43;;;4.50;;
19673;SDS011;9986;50.610;7.230;2023-02-01T00:13:29;9.77;;;4.40;;
19673;SDS011;9986;50.610;7.230;2023-02-01T00:16:16;6.30;;;4.37;;
19673;SDS011;9986;50.610;7.230;2023-02-01T00:24:16;13.77;;;7.03;;
19673;SDS011;9986;50.610;7.230;2023-02-01T00:27:04;8.87;;;5.73;;
19673;SDS011;9986;50.610;7.230;2023-02-01T00:32:16;11.07;;;5.07;;
19673;SDS011;9986;50.610;7.230;2023-02-01T00:37:26;11.90;;;5.10;;
19673;SDS011;9986;50.610;7.230;2023-02-01T00:40:08;8.10;;;5.53;;
19673;SDS011;9986;50.610;7.230;2023-02-01T00:42:48;9.10;;;5.13;;
19673;SDS011;9986;50.610;7.230;2023-02-01T00:45:29;11.03;;;5.23;;
19673;SDS011;9986;50.610;7.230;2023-02-01T00:48:09;9.37;;;5.63;;
19673;SDS011;9986;50.610;7.230;2023-02-01T00:50:41;9.40;;;5.10;;
19673;SDS011;9986;50.610;7.230;2023-02-01T00:53:31;8.23;;;4.83;;
19673;SDS011;9986;50.610;7.230;2023-02-01T00:56:20;8.97;;;4.90;;
19673;SDS011;9986;50.610;7.230;2023-02-01T00:59:07;11.57;;;5.47;;
19673;SDS011;9986;50.610;7.230;2023-02-01T01:01:54;17.67;;;5.27;;
19673;SDS011;9986;50.610;7.230;2023-02-01T01:04:25;8.13;;;4.03;;
19673;SDS011;9986;50.610;7.230;2023-02-01T01:07:06;15.30;;;5.43;;
19673;SDS011;9986;50.610;7.230;2023-02-01T01:09:52;8.47;;;3.97;;
19673;SDS011;9986;50.610;7.230;2023-02-01T01:15:08;10.13;;;4.23;;
19673;SDS011;9986;50.610;7.230;2023-02-01T01:17:54;9.53;;;4.90;;
19673;SDS011;9986;50.610;7.230;2023-02-01T01:20:40;9.33;;;4.23;;
19673;SDS011;9986;50.610;7.230;2023-02-01T01:23:21;10.77;;;4.87;;
19673;SDS011;9986;50.610;7.230;2023-02-01T01:26:04;7.17;;;3.30;;
19673;SDS011;9986;50.610;7.230;2023-02-01T01:28:55;12.57;;;4.33;;
19673;SDS011;9986;50.610;7.230;2023-02-01T01:31:36;9.17;;;4.30;;
19673;SDS011;9986;50.610;7.230;2023-02-01T01:34:22;13.50;;;4.17;;
19673;SDS011;9986;50.610;7.230;2023-02-01T01:37:02;14.03;;;4.03;;
19673;SDS011;9986;50.610;7.230;2023-02-01T01:39:43;9.50;;;3.57;;
19673;SDS011;9986;50.610;7.230;2023-02-01T01:42:23;9.00;;;3.23;;
19673;SDS011;9986;50.610;7.230;2023-02-01T01:45:18;9.70;;;3.90;;
19673;SDS011;9986;50.610;7.230;2023-02-01T01:47:53;5.27;;;3.33;;
19673;SDS011;9986;50.610;7.230;2023-02-01T01:50:42;7.60;;;3.70;;
19673;SDS011;9986;50.610;7.230;2023-02-01T01:53:31;14.47;;;4.30;;
19673;SDS011;9986;50.610;7.230;2023-02-01T01:58:52;12.00;;;4.17;;
19673;SDS011;9986;50.610;7.230;2023-02-01T02:01:39;12.93;;;4.03;;
19673;SDS011;9986;50.610;7.230;2023-02-01T02:04:20;9.53;;;4.27;;
19673;SDS011;9986;50.610;7.230;2023-02-01T02:09:31;11.17;;;4.30;;
19673;SDS011;9986;50.610;7.230;2023-02-01T02:12:11;13.80;;;3.87;;
19673;SDS011;9986;50.610;7.230;2023-02-01T02:14:58;7.87;;;3.37;;
19673;SDS011;9986;50.610;7.230;2023-02-01T02:17:46;8.43;;;3.33;;
19673;SDS011;9986;50.610;7.230;2023-02-01T02:20:42;10.77;;;3.83;;
19673;SDS011;9986;50.610;7.230;2023-02-01T02:38:17;15.67;;;3.60;;
19673;SDS011;9986;50.610;7.230;2023-02-01T02:41:10;10.57;;;4.17;;
19673;SDS011;9986;50.610;7.230;2023-02-01T02:43:55;11.83;;;4.23;;
19673;SDS011;9986;50.610;7.230;2023-02-01T02:49:33;11.47;;;3.77;;
19673;SDS011;9986;50.610;7.230;2023-02-01T02:52:12;14.27;;;4.50;;
19673;SDS011;9986;50.610;7.230;2023-02-01T02:55:03;12.57;;;4.23;;
19673;SDS011;9986;50.610;7.230;2023-02-01T02:57:52;14.07;;;4.43;;
19673;SDS011;9986;50.610;7.230;2023-02-01T03:03:22;12.43;;;3.67;;
19673;SDS011;9986;50.610;7.230;2023-02-01T03:11:42;12.13;;;3.63;;
19673;SDS011;9986;50.610;7.230;2023-02-01T03:14:30;11.10;;;4.00;;
19673;SDS011;9986;50.610;7.230;2023-02-01T03:17:19;12.93;;;3.63;;
19673;SDS011;9986;50.610;7.230;2023-02-01T03:22:32;9.87;;;3.27;;
19673;SDS011;9986;50.610;7.230;2023-02-01T03:27:51;8.97;;;3.90;;
19673;SDS011;9986;50.610;7.230;2023-02-01T03:33:05;8.07;;;3.20;;
19673;SDS011;9986;50.610;7.230;2023-02-01T03:35:42;11.20;;;3.57;;
19673;SDS011;9986;50.610;7.230;2023-02-01T03:43:49;9.23;;;3.43;;
19673;SDS011;9986;50.610;7.230;2023-02-01T03:46:37;11.13;;;3.20;;
19673;SDS011;9986;50.610;7.230;2023-02-01T03:49:20;10.13;;;3.53;;
19673;SDS011;9986;50.610;7.230;2023-02-01T03:54:47;9.50;;;3.97;;
19673;SDS011;9986;50.610;7.230;2023-02-01T03:57:30;11.10;;;3.40;;
19673;SDS011;9986;50.610;7.230;2023-02-01T04:00:16;10.83;;;3.27;;
19673;SDS011;9986;50.610;7.230;2023-02-01T04:02:58;8.77;;;3.67;;
19673;SDS011;9986;50.610;7.230;2023-02-01T04:05:45;9.17;;;3.40;;
19673;SDS011;9986;50.610;7.230;2023-02-01T04:08:26;10.87;;;3.57;;
19673;SDS011;9986;50.610;7.230;2023-02-01T04:11:06;9.53;;;4.00;;
19673;SDS011;9986;50.610;7.230;2023-02-01T04:16:23;12.00;;;4.13;;
19673;SDS011;9986;50.610;7.230;2023-02-01T04:19:04;13.77;;;4.00;;
19673;SDS011;9986;50.610;7.230;2023-02-01T04:24:14;10.57;;;4.07;;
19673;SDS011;9986;50.610;7.230;2023-02-01T04:26:54;13.70;;;4.57;;
19673;SDS011;9986;50.610;7.230;2023-02-01T04:29:35;13.17;;;4.27;;
19673;SDS011;9986;50.610;7.230;2023-02-01T04:32:14;12.20;;;4.20;;
19673;SDS011;9986;50.610;7.230;2023-02-01T04:34:57;12.60;;;4.70;;
19673;SDS011;9986;50.610;7.230;2023-02-01T04:37:38;18.13;;;8.70;;
19673;SDS011;9986;50.610;7.230;2023-02-01T04:40:20;9.47;;;4.63;;
19673;SDS011;9986;50.610;7.230;2023-02-01T04:45:39;14.03;;;4.93;;
19673;SDS011;9986;50.610;7.230;2023-02-01T04:48:20;10.67;;;4.50;;
19673;SDS011;9986;50.610;7.230;2023-02-01T04:51:00;13.47;;;4.63;;
19673;SDS011;9986;50.610;7.230;2023-02-01T04:53:48;12.60;;;4.90;;
19673;SDS011;9986;50.610;7.230;2023-02-01T04:56:28;13.03;;;4.47;;
19673;SDS011;9986;50.610;7.230;2023-02-01T04:59:15;14.23;;;5.50;;
19673;SDS011;9986;50.610;7.230;2023-02-01T05:01:55;15.13;;;4.50;;
19673;SDS011;9986;50.610;7.230;2023-02-01T05:07:28;13.00;;;4.77;;
19673;SDS011;9986;50.610;7.230;2023-02-01T05:10:12;13.67;;;3.67;;
19673;SDS011;9986;50.610;7.230;2023-02-01T05:15:25;12.73;;;4.63;;
19673;SDS011;9986;50.610;7.230;2023-02-01T05:20:47;14.63;;;4.67;;
19673;SDS011;9986;50.610;7.230;2023-02-01T05:26:17;11.37;;;3.80;;
19673;SDS011;9986;50.610;7.230;2023-02-01T05:29:04;9.80;;;4.03;;
19673;SDS011;9986;50.610;7.230;2023-02-01T05:31:45;11.50;;;3.93;;
19673;SDS011;9986;50.610;7.230;2023-02-01T05:36:57;8.23;;;3.47;;
19673;SDS011;9986;50.610;7.230;2023-02-01T05:39:36;15.50;;;4.47;;
19673;SDS011;9986;50.610;7.230;2023-02-01T05:42:19;17.07;;;6.50;;
19673;SDS011;9986;50.610;7.230;2023-02-01T05:45:04;14.07;;;3.50;;
19673;SDS011;9986;50.610;7.230;2023-02-01T05:47:44;9.97;;;3.50;;
19673;SDS011;9986;50.610;7.230;2023-02-01T05:50:25;12.33;;;5.27;;
19673;SDS011;9986;50.610;7.230;2023-02-01T05:58:32;9.70;;;3.37;;
19673;SDS011;9986;50.610;7.230;2023-02-01T06:01:13;10.27;;;3.23;;
19673;SDS011;9986;50.610;7.230;2023-02-01T06:06:44;8.37;;;2.80;;
19673;SDS011;9986;50.610;7.230;2023-02-01T06:12:07;5.30;;;2.90;;
19673;SDS011;9986;50.610;7.230;2023-02-01T06:14:49;12.20;;;3.07;;
19673;SDS011;9986;50.610;7.230;2023-02-01T06:23:02;11.07;;;3.57;;
19673;SDS011;9986;50.610;7.230;2023-02-01T06:25:42;12.37;;;3.40;;
19673;SDS011;9986;50.610;7.230;2023-02-01T06:28:29;10.30;;;2.27;;
19673;SDS011;9986;50.610;7.230;2023-02-01T06:31:11;9.83;;;4.00;;
19673;SDS011;9986;50.610;7.230;2023-02-01T06:33:57;6.97;;;2.57;;
19673;SDS011;9986;50.610;7.230;2023-02-01T06:36:47;10.03;;;3.33;;
19673;SDS011;9986;50.610;7.230;2023-02-01T06:39:31;5.73;;;3.23;;
19673;SDS011;9986;50.610;7.230;2023-02-01T06:42:21;8.30;;;2.87;;
19673;SDS011;9986;50.610;7.230;2023-02-01T06:44:53;8.73;;;3.47;;
19673;SDS011;9986;50.610;7.230;2023-02-01T06:47:34;10.70;;;3.20;;
19673;SDS011;9986;50.610;7.230;2023-02-01T06:50:11;13.03;;;3.50;;
19673;SDS011;9986;50.610;7.230;2023-02-01T06:52:52;7.20;;;3.43;;
19673;SDS011;9986;50.610;7.230;2023-02-01T07:36:07;15.33;;;3.47;;
19673;SDS011;9986;50.610;7.230;2023-02-01T07:38:45;14.53;;;3.57;;
19673;SDS011;9986;50.610;7.230;2023-02-01T07:41:37;8.73;;;3.57;;
19673;SDS011;9986;50.610;7.230;2023-02-01T07:44:34;10.17;;;3.63;;
19673;SDS011;9986;50.610;7.230;2023-02-01T07:56:15;11.93;;;3.97;;
19673;SDS011;9986;50.610;7.230;2023-02-01T07:59:03;15.60;;;3.87;;
19673;SDS011;9986;50.610;7.230;2023-02-01T08:08:07;8.60;;;3.40;;
19673;SDS011;9986;50.610;7.230;2023-02-01T08:11:00;11.33;;;4.10;;
19673;SDS011;9986;50.610;7.230;2023-02-01T08:33:54;12.27;;;4.37;;
19673;SDS011;9986;50.610;7.230;2023-02-01T08:36:41;15.00;;;4.30;;
19673;SDS011;9986;50.610;7.230;2023-02-01T08:39:33;12.40;;;3.60;;
19673;SDS011;9986;50.610;7.230;2023-02-01T08:42:14;11.97;;;4.60;;
19673;SDS011;9986;50.610;7.230;2023-02-01T08:44:53;10.60;;;3.60;;
19673;SDS011;9986;50.610;7.230;2023-02-01T09:01:30;7.00;;;3.67;;
19673;SDS011;9986;50.610;7.230;2023-02-01T09:21:24;9.53;;;3.43;;
19673;SDS011;9986;50.610;7.230;2023-02-01T09:27:29;9.60;;;4.03;;
19673;SDS011;9986;50.610;7.230;2023-02-01T09:39:33;10.07;;;3.03;;
19673;SDS011;9986;50.610;7.230;2023-02-01T09:42:16;13.77;;;4.33;;
19673;SDS011;9986;50.610;7.230;2023-02-01T09:58:59;10.70;;;3.20;;
19673;SDS011;9986;50.610;7.230;2023-02-01T10:05:11;15.47;;;3.70;;
19673;SDS011;9986;50.610;7.230;2023-02-01T10:10:54;10.90;;;3.40;;
19673;SDS011;9986;50.610;7.230;2023-02-01T10:13:45;14.27;;;3.50;;
19673;SDS011;9986;50.610;7.230;2023-02-01T10:22:45;9.27;;;2.90;;
19673;SDS011;9986;50.610;7.230;2023-02-01T10:25:52;8.70;;;2.63;;
19673;SDS011;9986;50.610;7.230;2023-02-01T10:28:32;9.13;;;3.10;;
19673;SDS011;9986;50.610;7.230;2023-02-01T10:31:47;10.83;;;2.83;;
19673;SDS011;9986;50.610;7.230;2023-02-01T10:34:38;7.47;;;2.83;;
19673;SDS011;9986;50.610;7.230;2023-02-01T10:37:54;10.93;;;3.13;;
19673;SDS011;9986;50.610;7.230;2023-02-01T10:47:18;13.00;;;3.43;;
19673;SDS011;9986;50.610;7.230;2023-02-01T10:55:54;8.93;;;3.40;;
19673;SDS011;9986;50.610;7.230;2023-02-01T11:04:09;15.90;;;3.10;;
19673;SDS011;9986;50.610;7.230;2023-02-01T11:06:51;8.73;;;3.20;;
19673;SDS011;9986;50.610;7.230;2023-02-01T11:09:34;7.10;;;2.87;;
19673;SDS011;9986;50.610;7.230;2023-02-01T11:12:25;11.53;;;3.50;;
19673;SDS011;9986;50.610;7.230;2023-02-01T11:14:59;6.30;;;2.27;;
19673;SDS011;9986;50.610;7.230;2023-02-01T11:17:48;6.73;;;2.70;;
19673;SDS011;9986;50.610;7.230;2023-02-01T11:20:34;10.50;;;3.07;;
19673;SDS011;9986;50.610;7.230;2023-02-01T11:23:28;11.50;;;3.40;;
19673;SDS011;9986;50.610;7.230;2023-02-01T11:26:20;14.13;;;3.03;;
19673;SDS011;9986;50.610;7.230;2023-02-01T11:28:59;9.87;;;3.13;;
19673;SDS011;9986;50.610;7.230;2023-02-01T11:31:40;16.47;;;4.73;;
19673;SDS011;9986;50.610;7.230;2023-02-01T11:34:22;10.73;;;3.03;;
19673;SDS011;9986;50.610;7.230;2023-02-01T11:37:03;8.97;;;3.13;;
19673;SDS011;9986;50.610;7.230;2023-02-01T11:39:44;8.03;;;2.97;;
19673;SDS011;9986;50.610;7.230;2023-02-01T11:42:32;7.03;;;2.77;;
19673;SDS011;9986;50.610;7.230;2023-02-01T11:45:18;7.17;;;2.80;;
19673;SDS011;9986;50.610;7.230;2023-02-01T11:50:46;8.60;;;3.07;;
19673;SDS011;9986;50.610;7.230;2023-02-01T11:56:45;7.70;;;2.47;;
19673;SDS011;9986;50.610;7.230;2023-02-01T12:02:11;7.93;;;2.63;;
19673;SDS011;9986;50.610;7.230;2023-02-01T12:08:05;8.33;;;3.10;;
19673;SDS011;9986;50.610;7.230;2023-02-01T12:13:35;6.93;;;2.77;;
19673;SDS011;9986;50.610;7.230;2023-02-01T12:22:25;16.50;;;4.20;;
19673;SDS011;9986;50.610;7.230;2023-02-01T12:25:18;7.87;;;2.93;;
19673;SDS011;9986;50.610;7.230;2023-02-01T12:30:46;5.87;;;2.70;;
19673;SDS011;9986;50.610;7.230;2023-02-01T12:33:41;9.93;;;4.83;;
19673;SDS011;9986;50.610;7.230;2023-02-01T12:36:24;8.57;;;2.50;;
19673;SDS011;9986;50.610;7.230;2023-02-01T12:41:53;10.53;;;3.93;;
19673;SDS011;9986;50.610;7.230;2023-02-01T12:47:20;11.73;;;2.93;;
19673;SDS011;9986;50.610;7.230;2023-02-01T12:50:04;9.80;;;2.87;;
19673;SDS011;9986;50.610;7.230;2023-02-01T12:52:57;7.07;;;2.90;;
19673;SDS011;9986;50.610;7.230;2023-02-01T12:55:46;10.30;;;2.80;;
19673;SDS011;9986;50.610;7.230;2023-02-01T12:58:35;7.33;;;2.87;;
19673;SDS011;9986;50.610;7.230;2023-02-01T13:01:20;5.23;;;2.90;;
19673;SDS011;9986;50.610;7.230;2023-02-01T13:04:09;6.90;;;2.90;;
19673;SDS011;9986;50.610;7.230;2023-02-01T13:06:53;8.83;;;3.10;;
19673;SDS011;9986;50.610;7.230;2023-02-01T13:09:37;9.40;;;3.90;;
19673;SDS011;9986;50.610;7.230;2023-02-01T13:12:19;5.33;;;2.27;;
19673;SDS011;9986;50.610;7.230;2023-02-01T13:17:38;5.17;;;2.10;;
19673;SDS011;9986;50.610;7.230;2023-02-01T13:20:21;8.03;;;2.50;;
19673;SDS011;9986;50.610;7.230;2023-02-01T13:23:03;7.27;;;2.83;;
19673;SDS011;9986;50.610;7.230;2023-02-01T13:25:46;11.53;;;2.40;;
19673;SDS011;9986;50.610;7.230;2023-02-01T13:28:35;6.87;;;3.00;;
19673;SDS011;9986;50.610;7.230;2023-02-01T13:31:27;8.73;;;3.47;;
19673;SDS011;9986;50.610;7.230;2023-02-01T13:34:26;5.73;;;2.77;;
19673;SDS011;9986;50.610;7.230;2023-02-01T13:39:55;9.57;;;2.40;;
19673;SDS011;9986;50.610;7.230;2023-02-01T13:45:17;7.20;;;2.90;;
19673;SDS011;9986;50.610;7.230;2023-02-01T13:48:05;5.50;;;2.47;;
19673;SDS011;9986;50.610;7.230;2023-02-01T13:50:49;5.77;;;2.47;;
19673;SDS011;9986;50.610;7.230;2023-02-01T13:53:29;5.83;;;2.53;;
19673;SDS011;9986;50.610;7.230;2023-02-01T13:56:13;8.17;;;2.37;;
19673;SDS011;9986;50.610;7.230;2023-02-01T14:08:02;10.20;;;2.97;;
19673;SDS011;9986;50.610;7.230;2023-02-01T14:10:53;7.50;;;2.60;;
19673;SDS011;9986;50.610;7.230;2023-02-01T14:13:36;7.83;;;2.43;;
19673;SDS011;9986;50.610;7.230;2023-02-01T14:18:58;6.97;;;2.50;;
19673;SDS011;9986;50.610;7.230;2023-02-01T14:24:18;8.00;;;2.83;;
19673;SDS011;9986;50.610;7.230;2023-02-01T14:29:52;10.77;;;2.50;;
19673;SDS011;9986;50.610;7.230;2023-02-01T14:32:33;6.40;;;2.20;;
19673;SDS011;9986;50.610;7.230;2023-02-01T14:35:23;7.27;;;2.33;;
19673;SDS011;9986;50.610;7.230;2023-02-01T14:40:36;6.30;;;2.27;;
19673;SDS011;9986;50.610;7.230;2023-02-01T14:43:17;9.23;;;2.87;;
19673;SDS011;9986;50.610;7.230;2023-02-01T14:46:04;10.23;;;2.13;;
19673;SDS011;9986;50.610;7.230;2023-02-01T14:51:31;7.93;;;2.40;;
19673;SDS011;9986;50.610;7.230;2023-02-01T14:54:12;11.07;;;2.90;;
19673;SDS011;9986;50.610;7.230;2023-02-01T14:56:53;8.53;;;2.63;;
19673;SDS011;9986;50.610;7.230;2023-02-01T14:59:42;6.97;;;2.33;;
19673;SDS011;9986;50.610;7.230;2023-02-01T15:05:34;7.27;;;2.40;;
19673;SDS011;9986;50.610;7.230;2023-02-01T15:11:14;7.07;;;1.97;;
19673;SDS011;9986;50.610;7.230;2023-02-01T15:14:00;9.50;;;2.30;;
19673;SDS011;9986;50.610;7.230;2023-02-01T15:16:42;5.43;;;2.37;;
19673;SDS011;9986;50.610;7.230;2023-02-01T15:22:04;8.27;;;2.47;;
19673;SDS011;9986;50.610;7.230;2023-02-01T15:27:31;4.70;;;2.10;;
19673;SDS011;9986;50.610;7.230;2023-02-01T15:30:19;7.30;;;2.47;;
19673;SDS011;9986;50.610;7.230;2023-02-01T15:33:17;9.30;;;2.90;;
19673;SDS011;9986;50.610;7.230;2023-02-01T15:38:47;6.53;;;2.27;;
19673;SDS011;9986;50.610;7.230;2023-02-01T15:41:33;7.83;;;2.70;;
19673;SDS011;9986;50.610;7.230;2023-02-01T15:46:44;8.50;;;2.20;;
19673;SDS011;9986;50.610;7.230;2023-02-01T15:49:28;9.50;;;3.03;;
19673;SDS011;9986;50.610;7.230;2023-02-01T15:54:43;6.57;;;1.87;;
19673;SDS011;9986;50.610;7.230;2023-02-01T15:59:59;5.13;;;2.20;;
19673;SDS011;9986;50.610;7.230;2023-02-01T16:02:43;8.10;;;2.40;;
19673;SDS011;9986;50.610;7.230;2023-02-01T16:05:33;5.10;;;2.13;;
19673;SDS011;9986;50.610;7.230;2023-02-01T16:08:21;6.57;;;2.20;;
19673;SDS011;9986;50.610;7.230;2023-02-01T16:13:38;4.50;;;2.10;;
19673;SDS011;9986;50.610;7.230;2023-02-01T16:16:25;11.27;;;2.70;;
19673;SDS011;9986;50.610;7.230;2023-02-01T16:19:11;6.13;;;2.37;;
19673;SDS011;9986;50.610;7.230;2023-02-01T16:21:54;6.37;;;2.53;;
19673;SDS011;9986;50.610;7.230;2023-02-01T16:24:34;6.57;;;2.43;;
19673;SDS011;9986;50.610;7.230;2023-02-01T16:27:15;6.80;;;2.50;;
19673;SDS011;9986;50.610;7.230;2023-02-01T16:30:01;10.33;;;2.60;;
19673;SDS011;9986;50.610;7.230;2023-02-01T16:35:23;6.87;;;2.17;;
19673;SDS011;9986;50.610;7.230;2023-02-01T16:40:48;8.87;;;2.77;;
19673;SDS011;9986;50.610;7.230;2023-02-01T16:45:58;5.07;;;2.33;;
19673;SDS011;9986;50.610;7.230;2023-02-01T16:48:40;8.07;;;2.47;;
19673;SDS011;9986;50.610;7.230;2023-02-01T16:53:59;8.77;;;3.10;;
19673;SDS011;9986;50.610;7.230;2023-02-01T17:01:59;8.23;;;2.60;;
19673;SDS011;9986;50.610;7.230;2023-02-01T17:04:41;10.00;;;3.93;;
19673;SDS011;9986;50.610;7.230;2023-02-01T17:07:23;10.60;;;3.70;;
19673;SDS011;9986;50.610;7.230;2023-02-01T17:15:18;7.13;;;2.30;;
19673;SDS011;9986;50.610;7.230;2023-02-01T17:23:21;9.63;;;3.70;;
19673;SDS011;9986;50.610;7.230;2023-02-01T17:28:49;6.00;;;3.10;;
19673;SDS011;9986;50.610;7.230;2023-02-01T17:31:28;7.43;;;3.30;;
19673;SDS011;9986;50.610;7.230;2023-02-01T17:34:09;8.93;;;2.90;;
19673;SDS011;9986;50.610;7.230;2023-02-01T17:36:49;7.13;;;3.10;;
19673;SDS011;9986;50.610;7.230;2023-02-01T17:39:34;12.20;;;3.27;;
19673;SDS011;9986;50.610;7.230;2023-02-01T17:42:15;9.23;;;3.37;;
19673;SDS011;9986;50.610;7.230;2023-02-01T17:44:55;7.57;;;2.77;;
19673;SDS011;9986;50.610;7.230;2023-02-01T17:50:08;7.43;;;3.33;;
19673;SDS011;9986;50.610;7.230;2023-02-01T17:55:35;6.80;;;3.20;;
19673;SDS011;9986;50.610;7.230;2023-02-01T17:58:21;10.27;;;3.40;;
19673;SDS011;9986;50.610;7.230;2023-02-01T18:01:02;11.53;;;3.27;;
19673;SDS011;9986;50.610;7.230;2023-02-01T18:03:44;4.57;;;2.63;;
19673;SDS011;9986;50.610;7.230;2023-02-01T18:06:31;14.87;;;3.67;;
19673;SDS011;9986;50.610;7.230;2023-02-01T18:09:11;5.90;;;3.30;;
19673;SDS011;9986;50.610;7.230;2023-02-01T18:11:58;5.77;;;2.63;;
19673;SDS011;9986;50.610;7.230;2023-02-01T18:17:17;11.77;;;3.77;;
19673;SDS011;9986;50.610;7.230;2023-02-01T18:22:26;8.17;;;3.70;;
19673;SDS011;9986;50.610;7.230;2023-02-01T18:25:13;8.33;;;3.47;;
19673;SDS011;9986;50.610;7.230;2023-02-01T18:27:58;6.60;;;4.13;;
19673;SDS011;9986;50.610;7.230;2023-02-01T18:33:22;7.07;;;3.37;;
19673;SDS011;9986;50.610;7.230;2023-02-01T18:36:02;7.50;;;3.13;;
19673;SDS011;9986;50.610;7.230;2023-02-01T18:38:42;7.50;;;4.07;;
19673;SDS011;9986;50.610;7.230;2023-02-01T18:41:23;6.50;;;3.57;;
19673;SDS011;9986;50.610;7.230;2023-02-01T18:46:42;6.93;;;3.73;;
19673;SDS011;9986;50.610;7.230;2023-02-01T18:49:22;6.30;;;3.37;;
19673;SDS011;9986;50.610;7.230;2023-02-01T18:54:33;9.20;;;3.47;;
19673;SDS011;9986;50.610;7.230;2023-02-01T18:57:13;6.37;;;3.47;;
19673;SDS011;9986;50.610;7.230;2023-02-01T18:59:53;5.00;;;3.37;;
19673;SDS011;9986;50.610;7.230;2023-02-01T19:02:34;8.93;;;3.23;;
19673;SDS011;9986;50.610;7.230;2023-02-01T19:05:23;8.10;;;3.20;;
19673;SDS011;9986;50.610;7.230;2023-02-01T19:08:09;9.00;;;3.67;;
19673;SDS011;9986;50.610;7.230;2023-02-01T19:10:50;10.17;;;4.10;;
19673;SDS011;9986;50.610;7.230;2023-02-01T19:13:30;6.23;;;3.20;;
19673;SDS011;9986;50.610;7.230;2023-02-01T19:16:10;11.07;;;5.67;;
19673;SDS011;9986;50.610;7.230;2023-02-01T19:21:20;6.87;;;3.33;;
19673;SDS011;9986;50.610;7.230;2023-02-01T19:26:30;10.27;;;3.77;;
19673;SDS011;9986;50.610;7.230;2023-02-01T19:29:11;7.47;;;3.43;;
19673;SDS011;9986;50.610;7.230;2023-02-01T19:31:51;9.10;;;4.13;;
19673;SDS011;9986;50.610;7.230;2023-02-01T19:34:32;8.07;;;3.10;;
19673;SDS011;9986;50.610;7.230;2023-02-01T19:39:50;11.40;;;3.73;;
19673;SDS011;9986;50.610;7.230;2023-02-01T19:42:30;8.13;;;3.83;;
19673;SDS011;9986;50.610;7.230;2023-02-01T19:47:41;7.30;;;2.97;;
19673;SDS011;9986;50.610;7.230;2023-02-01T19:50:29;7.47;;;3.30;;
19673;SDS011;9986;50.610;7.230;2023-02-01T19:53:10;16.03;;;3.70;;
19673;SDS011;9986;50.610;7.230;2023-02-01T19:55:50;9.10;;;2.97;;
19673;SDS011;9986;50.610;7.230;2023-02-01T19:58:31;8.77;;;4.03;;
19673;SDS011;9986;50.610;7.230;2023-02-01T20:01:11;8.67;;;2.63;;
19673;SDS011;9986;50.610;7.230;2023-02-01T20:03:53;12.13;;;3.20;;
19673;SDS011;9986;50.610;7.230;2023-02-01T20:06:40;14.33;;;4.17;;
19673;SDS011;9986;50.610;7.230;2023-02-01T20:14:43;6.50;;;3.23;;
19673;SDS011;9986;50.610;7.230;2023-02-01T20:19:53;13.70;;;3.47;;
19673;SDS011;9986;50.610;7.230;2023-02-01T20:25:03;9.63;;;4.43;;
19673;SDS011;9986;50.610;7.230;2023-02-01T20:27:48;11.93;;;3.57;;
19673;SDS011;9986;50.610;7.230;2023-02-01T20:30:29;12.40;;;3.37;;
19673;SDS011;9986;50.610;7.230;2023-02-01T20:33:10;18.67;;;5.00;;
19673;SDS011;9986;50.610;7.230;2023-02-01T20:35:50;14.43;;;3.93;;
19673;SDS011;9986;50.610;7.230;2023-02-01T20:38:31;4.97;;;2.90;;
19673;SDS011;9986;50.610;7.230;2023-02-01T20:41:11;12.27;;;4.40;;
19673;SDS011;9986;50.610;7.230;2023-02-01T20:43:50;11.27;;;3.40;;
19673;SDS011;9986;50.610;7.230;2023-02-01T20:46:31;8.17;;;3.00;;
19673;SDS011;9986;50.610;7.230;2023-02-01T20:49:18;13.47;;;3.73;;
19673;SDS011;9986;50.610;7.230;2023-02-01T20:52:04;10.20;;;3.70;;
19673;SDS011;9986;50.610;7.230;2023-02-01T20:54:44;10.73;;;4.33;;
19673;SDS011;9986;50.610;7.230;2023-02-01T21:00:02;9.20;;;3.47;;
19673;SDS011;9986;50.610;7.230;2023-02-01T21:02:43;7.80;;;3.07;;
19673;SDS011;9986;50.610;7.230;2023-02-01T21:05:24;11.07;;;3.20;;
19673;SDS011;9986;50.610;7.230;2023-02-01T21:10:37;7.07;;;3.20;;
19673;SDS011;9986;50.610;7.230;2023-02-01T21:15:47;8.50;;;2.77;;
19673;SDS011;9986;50.610;7.230;2023-02-01T21:18:27;7.80;;;2.87;;
19673;SDS011;9986;50.610;7.230;2023-02-01T21:21:08;7.37;;;2.77;;
19673;SDS011;9986;50.610;7.230;2023-02-01T21:23:49;6.10;;;3.77;;
19673;SDS011;9986;50.610;7.230;2023-02-01T21:26:30;8.20;;;3.67;;
19673;SDS011;9986;50.610;7.230;2023-02-01T21:29:11;7.97;;;2.80;;
19673;SDS011;9986;50.610;7.230;2023-02-01T21:31:51;12.27;;;3.30;;
19673;SDS011;9986;50.610;7.230;2023-02-01T21:34:32;14.43;;;4.53;;
19673;SDS011;9986;50.610;7.230;2023-02-01T21:37:18;11.77;;;3.67;;
19673;SDS011;9986;50.610;7.230;2023-02-01T21:39:59;10.20;;;3.53;;
19673;SDS011;9986;50.610;7.230;2023-02-01T21:45:09;12.67;;;3.80;;
19673;SDS011;9986;50.610;7.230;2023-02-01T21:47:50;7.93;;;3.30;;
19673;SDS011;9986;50.610;7.230;2023-02-01T21:50:30;9.87;;;4.30;;
19673;SDS011;9986;50.610;7.230;2023-02-01T21:53:10;9.30;;;3.90;;
19673;SDS011;9986;50.610;7.230;2023-02-01T21:55:51;11.80;;;3.90;;
19673;SDS011;9986;50.610;7.230;2023-02-01T21:58:31;7.57;;;3.90;;
19673;SDS011;9986;50.610;7.230;2023-02-01T22:01:15;8.77;;;3.60;;
19673;SDS011;9986;50.610;7.230;2023-02-01T22:03:54;10.07;;;3.60;;
19673;SDS011;9986;50.610;7.230;2023-02-01T22:06:35;8.80;;;3.60;;
19673;SDS011;9986;50.610;7.230;2023-02-01T22:11:50;7.17;;;3.57;;
19673;SDS011;9986;50.610;7.230;2023-02-01T22:14:31;5.07;;;3.20;;
19673;SDS011;9986;50.610;7.230;2023-02-01T22:17:14;8.97;;;4.10;;
19673;SDS011;9986;50.610;7.230;2023-02-01T22:19:54;10.10;;;4.20;;
19673;SDS011;9986;50.610;7.230;2023-02-01T22:25:20;13.33;;;4.00;;
19673;SDS011;9986;50.610;7.230;2023-02-01T22:28:00;8.03;;;3.23;;
19673;SDS011;9986;50.610;7.230;2023-02-01T22:30:47;8.57;;;3.77;;
19673;SDS011;9986;50.610;7.230;2023-02-01T22:35:57;10.70;;;4.23;;
19673;SDS011;9986;50.610;7.230;2023-02-01T22:41:17;10.47;;;4.00;;
19673;SDS011;9986;50.610;7.230;2023-02-01T22:43:58;9.07;;;3.40;;
19673;SDS011;9986;50.610;7.230;2023-02-01T22:49:08;9.23;;;4.30;;
19673;SDS011;9986;50.610;7.230;2023-02-01T22:51:49;10.17;;;3.43;;
19673;SDS011;9986;50.610;7.230;2023-02-01T22:54:29;6.27;;;3.20;;
19673;SDS011;9986;50.610;7.230;2023-02-01T22:59:40;10.80;;;3.60;;
19673;SDS011;9986;50.610;7.230;2023-02-01T23:02:29;15.13;;;3.77;;
19673;SDS011;9986;50.610;7.230;2023-02-01T23:05:09;12.70;;;4.30;;
19673;SDS011;9986;50.610;7.230;2023-02-01T23:07:55;10.63;;;3.60;;
19673;SDS011;9986;50.610;7.230;2023-02-01T23:10:34;11.43;;;4.47;;
19673;SDS011;9986;50.610;7.230;2023-02-01T23:13:15;9.50;;;3.67;;
19673;SDS011;9986;50.610;7.230;2023-02-01T23:15:55;10.60;;;4.27;;
19673;SDS011;9986;50.610;7.230;2023-02-01T23:18:36;11.53;;;4.17;;
19673;SDS011;9986;50.610;7.230;2023-02-01T23:21:17;11.00;;;4.77;;
19673;SDS011;9986;50.610;7.230;2023-02-01T23:23:58;17.53;;;6.17;;
19673;SDS011;9986;50.610;7.230;2023-02-01T23:26:39;8.90;;;3.83;;
19673;SDS011;9986;50.610;7.230;2023-02-01T23:29:19;17.53;;;4.50;;
19673;SDS011;9986;50.610;7.230;2023-02-01T23:34:28;10.17;;;3.90;;
19673;SDS011;9986;50.610;7.230;2023-02-01T23:37:15;9.80;;;4.10;;
19673;SDS011;9986;50.610;7.230;2023-02-01T23:42:25;11.43;;;3.90;;
19673;SDS011;9986;50.610;7.230;2023-02-01T23:45:06;12.80;;;4.07;;
19673;SDS011;9986;50.610;7.230;2023-02-01T23:47:46;12.00;;;4.23;;
19673;SDS011;9986;50.610;7.230;2023-02-01T23:50:26;16.07;;;4.03;;
19673;SDS011;9986;50.610;7.230;2023-02-01T23:53:07;7.90;;;3.83;;
19673;SDS011;9986;50.610;7.230;2023-02-01T23:58:29;10.20;;;4.13;;
